Date,TemperatureHighF,TemperatureAvgF,TemperatureLowF,DewpointHighF,DewpointAvgF,DewpointLowF,HumidityHigh,HumidityAvg,HumidityLow,PressureMaxIn,PressureMinIn,WindSpeedMaxMPH,WindSpeedAvgMPH,GustSpeedMaxMPH,PrecipitationSumIn
2014-1-7,24.4,4.4,3.0,4.1,-4.0,-6.2,73,68,41,30.22,30.02,36,20,36,0.00
2014-1-8,16.9,8.2,-0.2,8.4,2.0,-5.0,87,76,65,30.46,30.22,27,9,28,0.00
2014-1-9,25.1,15.2,6.4,16.6,10.3,3.8,92,81,68,30.63,30.43,21,6,21,0.00
2014-1-10,28.2,21.0,6.4,27.0,19.1,3.9,95,92,88,30.55,30.19,6,0,7,0.00
2014-1-11,44.3,35.4,27.8,44.3,35.0,26.3,100,98,88,30.19,29.22,38,3,39,0.61
2014-1-12,39.8,35.5,32.9,36.8,31.5,28.3,91,85,81,29.97,29.35,37,21,40,0.04
2014-1-13,38.9,32.3,24.6,34.0,29.2,23.6,98,89,76,30.03,29.78,14,1,15,0.01
2014-1-14,37.1,35.0,34.0,37.1,34.7,31.5,100,99,89,29.80,29.67,22,2,22,0.34
2014-1-15,38.6,32.5,26.1,35.8,31.5,25.5,100,96,86,29.93,29.80,18,2,18,0.05
2014-1-16,32.9,30.0,27.7,32.7,28.4,26.5,99,94,87,29.96,29.87,13,2,14,0.06
2014-1-17,33.7,25.8,15.7,30.2,24.2,14.0,98,94,79,29.92,29.86,11,1,12,0.11
2014-1-18,34.4,23.7,15.3,31.2,21.8,13.2,97,92,85,29.89,29.66,17,5,17,0.00
2014-1-19,28.0,24.0,18.8,26.5,20.5,15.8,96,86,74,29.77,29.48,25,10,25,0.00
2014-1-20,33.2,24.6,5.0,30.2,21.0,-2.2,96,86,68,29.96,29.50,35,12,38,0.00
2014-1-21,9.7,3.8,-2.4,2.0,-2.4,-7.4,81,75,63,30.10,29.96,13,4,13,0.00
2014-1-22,9.3,-3.3,-12.6,-0.8,-8.5,-16.3,85,78,60,30.04,29.88,14,3,15,0.00
2014-1-23,14.9,2.1,-7.8,6.9,-3.3,-11.2,86,78,61,30.25,30.03,30,7,31,0.00
2014-1-24,14.3,5.9,-4.5,4.8,-1.6,-8.4,85,71,57,30.32,29.89,28,8,28,0.00
2014-1-25,18.8,15.5,11.6,15.9,10.9,2.9,94,82,67,29.89,29.34,30,6,30,0.00
2014-1-26,16.4,9.6,-2.6,12.4,2.0,-8.5,87,71,54,29.81,29.42,38,10,38,0.00
2014-1-27,20.2,13.9,7.7,17.2,10.0,1.5,92,84,73,30.04,29.45,36,10,36,0.00
2014-1-28,14.6,5.3,-5.1,2.4,-2.4,-8.9,84,70,54,30.30,30.04,33,10,33,0.00
2014-1-29,15.1,2.0,-14.7,3.7,-5.0,-18.6,88,73,52,30.26,30.03,31,8,31,0.00
2014-1-30,24.6,11.0,-1.7,12.5,3.9,-5.0,87,74,52,30.43,30.05,19,3,19,0.00
2014-1-31,33.5,25.2,17.1,25.1,17.4,9.1,84,72,55,30.19,29.98,18,4,25,0.00
2014-2-1,37.7,26.5,15.8,32.2,23.6,13.9,97,89,67,30.31,29.94,18,1,19,0.01
2014-2-2,37.1,33.1,30.5,35.4,31.6,27.1,98,94,87,30.12,29.84,20,8,20,0.00
2014-2-3,30.5,26.8,19.7,27.1,22.5,16.3,91,83,76,30.31,30.12,19,3,20,0.00
2014-2-4,27.8,19.5,6.6,20.2,14.7,4.2,94,82,67,30.48,30.24,13,2,14,0.00
2014-2-5,24.2,22.9,20.2,23.2,21.0,18.6,96,92,82,30.27,29.69,17,5,18,0.00
2014-2-6,23.0,10.0,-0.9,19.4,5.8,-3.9,95,83,67,30.32,30.01,18,4,18,0.00
2014-2-7,24.8,9.7,-5.2,14.4,4.5,-8.5,94,80,61,30.28,30.18,29,6,29,0.00
2014-2-8,22.7,12.5,3.2,10.8,5.4,-2.5,84,73,57,30.33,30.17,24,8,24,0.00
2014-2-9,24.1,15.3,4.0,16.5,11.7,0.6,94,86,68,30.19,29.94,12,1,12,0.00
2014-2-10,21.5,10.3,-0.4,14.4,6.0,-3.7,95,83,69,30.25,29.94,23,4,23,0.00
2014-2-11,23.9,4.0,-13.0,11.9,-1.8,-17.2,91,77,53,30.53,30.25,20,4,20,0.00
2014-2-12,17.5,-1.7,-20.2,6.9,-7.6,-24.8,87,76,53,30.61,30.37,8,2,8,0.00
2014-2-13,30.7,17.8,-3.0,28.2,15.4,-6.6,96,90,83,30.37,29.18,27,8,28,0.00
2014-2-14,30.9,27.4,22.2,29.2,24.4,20.3,98,88,81,29.74,29.06,43,17,43,0.00
2014-2-15,32.5,25.8,19.9,28.7,22.7,15.1,93,88,78,29.81,29.71,24,4,24,0.00
2014-2-16,24.1,16.2,9.4,16.8,9.8,1.1,88,76,64,30.11,29.74,31,15,33,0.00
2014-2-17,26.6,9.0,-4.6,11.4,-0.2,-8.7,84,67,42,30.39,30.11,13,4,18,0.01
2014-2-18,26.7,18.3,0.5,24.5,13.6,-3.8,97,82,55,30.31,29.95,23,4,23,0.00
2014-2-20,43.3,33.7,23.7,34.0,29.4,21.7,98,85,66,30.18,30.02,20,4,20,0.11
2014-2-21,38.4,35.1,33.0,38.1,34.7,32.5,99,98,94,30.03,29.58,23,3,24,0.94
2014-2-23,42.2,37.0,28.5,33.0,27.2,17.5,81,68,55,29.92,29.81,30,9,31,0.00
2014-2-24,28.5,22.3,17.8,21.4,17.3,13.0,91,81,68,29.98,29.80,48,19,49,0.00
2014-2-25,22.6,16.4,10.0,14.5,10.2,4.8,86,76,65,30.00,29.91,34,12,36,0.00
2014-2-26,17.8,10.2,-1.9,13.7,5.2,-6.5,92,80,62,29.91,29.81,43,11,43,0.00
2014-2-27,24.2,8.9,-1.3,15.9,4.4,-4.9,90,82,56,30.01,29.57,44,10,44,0.01
2014-2-28,20.7,6.5,-3.7,8.5,-1.1,-7.9,84,71,50,30.43,30.01,29,9,29,0.00
2014-3-1,32.0,14.5,-3.7,19.1,5.9,-7.8,86,70,43,30.42,30.07,16,2,17,0.00
2014-3-2,29.4,22.4,11.1,24.6,16.1,5.5,91,77,64,30.13,30.04,27,12,27,0.00
2014-3-3,24.3,10.0,-1.3,7.6,1.2,-6.5,81,68,43,30.35,30.08,22,7,23,0.00
2014-3-4,21.5,7.6,-8.2,14.1,2.0,-12.1,90,78,52,30.40,30.27,14,3,14,0.00
2014-3-5,29.2,17.3,3.8,20.2,13.2,0.2,92,84,63,30.57,30.25,18,3,18,0.01
2014-3-6,25.3,5.7,-11.3,12.6,-1.0,-15.5,87,75,50,30.69,30.49,8,2,9,0.01
2014-3-7,36.9,13.8,-5.5,21.5,6.7,-9.1,89,75,41,30.49,29.97,17,2,17,0.00
2014-3-8,41.8,25.5,9.4,32.5,21.6,7.1,93,85,68,29.97,29.79,22,4,23,0.00
2014-3-9,34.8,24.4,15.6,21.7,16.6,12.8,89,72,51,30.00,29.86,32,9,32,0.00
2014-3-10,39.2,29.7,22.4,31.4,24.6,15.7,91,81,71,29.86,29.51,12,1,13,0.00
2014-3-11,47.4,39.2,29.7,35.7,33.0,27.7,95,79,61,29.69,29.48,27,8,28,0.00
2014-3-12,35.8,33.4,28.8,33.5,31.7,27.0,98,94,83,29.69,29.16,16,3,19,0.27
2014-3-13,19.5,13.8,10.3,12.8,7.4,2.1,84,75,63,30.01,29.41,30,10,31,0.00
2014-3-14,35.5,22.8,12.2,26.6,17.0,7.2,87,78,64,30.11,29.74,22,5,23,0.10
2014-3-15,40.4,34.0,26.4,36.9,30.1,19.4,98,86,72,29.98,29.64,40,13,42,0.19
2014-3-16,26.4,20.3,12.0,21.0,11.8,3.8,87,69,56,30.25,29.98,33,17,34,0.00
2014-3-17,31.6,16.1,4.5,15.4,5.6,-0.1,82,64,43,30.24,30.07,12,3,13,0.04
2014-3-18,38.6,20.5,3.7,24.9,10.8,0.4,86,68,32,30.31,30.17,14,3,14,0.04
2014-3-19,36.5,27.7,17.0,32.1,20.4,12.3,97,75,53,30.29,29.86,25,3,25,0.00
2014-3-20,39.2,34.6,31.5,34.9,32.2,27.9,99,91,77,29.85,29.65,43,14,43,0.26
2014-3-21,34.2,30.3,22.1,28.8,25.9,19.3,91,84,73,30.06,29.77,38,18,43,0.02
2014-3-22,37.5,29.5,19.7,33.7,25.6,17.7,94,85,74,30.06,29.67,55,10,57,0.01
2014-3-23,32.7,26.9,14.8,27.4,18.5,6.8,87,71,48,30.18,29.95,33,16,33,0.00
2014-3-24,30.9,17.5,4.5,16.4,8.6,1.5,88,69,41,30.22,30.07,32,6,33,0.00
2014-3-25,37.0,20.3,4.2,22.8,12.6,1.4,89,74,45,30.14,29.92,23,3,24,0.00
2014-3-26,28.5,22.9,17.2,18.4,13.4,6.2,82,67,52,30.18,29.86,39,15,39,0.00
2014-3-27,37.3,25.2,10.9,25.5,14.9,5.6,82,66,44,30.37,30.14,21,6,22,0.00
2014-3-28,41.4,34.2,30.5,40.6,32.5,20.9,100,94,58,30.15,29.87,32,3,32,0.01
2014-3-29,50.3,39.0,33.8,39.1,36.0,33.3,99,90,65,30.24,29.87,29,6,29,0.36
2014-3-30,41.2,36.8,33.0,38.4,35.3,31.9,98,94,86,29.87,29.69,21,10,21,0.63
2014-3-31,42.6,35.8,30.3,35.0,31.8,27.8,98,86,71,30.14,29.81,21,8,21,0.05
2014-4-1,47.6,35.7,26.9,34.6,29.7,25.4,96,80,54,30.14,29.97,14,3,15,0.00
2014-4-2,50.1,37.1,26.8,37.8,30.8,25.7,97,79,58,30.10,29.97,33,8,33,0.00
2014-4-3,48.1,37.5,26.3,35.5,29.0,23.9,93,73,53,30.16,30.04,32,4,32,0.00
2014-4-4,44.3,37.5,31.4,36.9,31.2,25.9,96,79,61,30.10,29.75,24,4,25,0.44
2014-4-5,40.6,35.6,33.4,36.2,31.6,26.8,99,85,69,30.02,29.68,46,16,46,0.02
2014-4-6,51.9,38.4,28.7,35.8,28.5,22.9,84,68,49,30.18,30.01,35,11,35,0.00
2014-4-7,52.8,38.7,27.3,38.6,30.3,24.5,95,75,35,30.18,29.72,27,3,28,0.13
2014-4-8,49.6,39.6,35.6,49.5,38.4,34.8,100,96,89,29.72,29.29,42,8,42,0.24
2014-4-9,46.2,37.5,30.5,36.8,31.0,23.8,100,79,53,29.97,29.60,30,9,30,0.00
2014-4-10,66.8,46.1,27.5,41.1,31.6,23.0,92,61,33,30.09,29.82,34,5,34,0.00
2014-4-11,61.9,48.5,36.8,46.7,39.4,34.2,93,72,44,30.01,29.83,20,5,21,0.00
2014-4-12,61.6,43.9,28.8,46.7,35.8,27.7,98,76,45,30.17,30.00,22,4,22,0.00
2014-4-13,76.5,54.5,37.7,58.2,45.9,32.6,98,75,51,30.17,29.81,27,3,30,0.11
2014-4-14,78.0,60.0,38.8,60.5,50.1,37.5,100,74,45,29.87,29.64,32,5,34,0.06
2014-4-15,60.4,48.4,29.3,60.2,46.9,26.5,100,95,87,29.91,29.37,35,12,35,0.81
2014-4-16,40.6,31.6,24.4,27.2,21.8,14.9,89,68,39,30.59,29.90,34,12,34,0.00
2014-4-17,50.4,35.8,22.1,29.8,24.1,20.1,94,66,35,30.74,30.56,20,4,20,0.00
2014-4-18,51.5,39.7,27.9,31.8,26.9,23.1,88,62,38,30.57,30.20,19,3,20,0.00
2014-4-19,53.8,42.4,30.2,40.9,33.7,27.4,99,73,49,30.42,30.16,25,6,25,0.01
2014-4-20,59.0,41.6,26.3,38.8,31.3,24.3,95,70,33,30.50,30.23,13,3,13,0.00
2014-4-21,75.3,51.5,33.0,45.4,36.8,29.7,93,63,27,30.23,29.76,18,2,18,0.00
2014-4-22,65.1,50.5,43.1,56.8,45.6,38.0,99,84,59,29.76,29.45,26,3,26,0.10
2014-4-23,48.2,44.2,41.8,44.8,39.1,31.7,92,82,70,29.79,29.50,34,14,34,0.01
2014-4-24,54.0,44.0,35.6,33.5,28.3,21.1,72,54,36,30.01,29.78,29,14,30,0.00
2014-4-25,63.2,44.7,27.7,44.8,31.1,24.0,95,64,25,30.04,29.72,24,4,24,0.17
2014-4-26,51.9,44.4,40.6,45.9,42.2,39.2,99,92,75,29.85,29.66,21,7,22,0.35
2014-4-27,52.2,45.4,40.4,42.2,39.3,36.7,91,80,62,30.14,29.84,20,8,21,0.00
2014-4-28,62.5,47.7,31.3,47.4,38.5,30.0,98,73,43,30.15,30.01,20,4,22,0.00
2014-4-29,56.3,47.0,39.9,41.9,40.5,38.2,97,79,54,30.40,30.12,28,7,28,0.27
2014-4-30,44.2,41.5,38.2,43.9,40.7,37.4,99,97,94,30.41,29.98,21,5,22,0.78
2014-5-1,63.4,50.7,43.6,59.6,49.2,42.3,100,95,77,29.98,29.66,26,3,26,0.52
2014-5-2,56.6,46.9,36.7,49.3,43.1,36.2,100,88,65,29.81,29.68,38,7,38,0.01
2014-5-3,62.9,50.9,45.5,49.4,46.6,44.3,98,86,55,29.82,29.62,36,3,36,0.02
2014-5-4,47.5,45.5,43.6,47.2,42.8,40.5,99,90,83,29.74,29.60,45,14,46,0.08
2014-5-5,59.7,50.2,44.2,48.5,43.5,38.9,90,78,62,29.89,29.74,21,8,21,0.00
2014-5-6,58.2,47.5,35.4,43.5,38.5,34.0,97,73,47,30.08,29.87,25,6,25,0.00
2014-5-7,63.5,49.2,32.2,49.0,38.1,29.5,95,68,43,30.23,30.08,16,4,16,0.00
2014-5-8,76.5,56.8,40.1,55.5,45.1,37.1,93,68,32,30.15,30.00,20,2,20,0.00
2014-5-9,61.1,58.0,53.3,58.6,51.8,41.3,94,81,55,30.11,29.93,20,4,21,0.00
2014-5-10,70.7,62.6,56.0,64.2,56.1,42.8,100,81,55,29.93,29.71,29,8,29,0.28
2014-5-11,70.3,59.4,49.2,53.7,48.0,40.9,87,67,47,30.03,29.83,27,10,27,0.00
2014-5-12,81.8,63.0,46.1,59.9,51.0,43.6,96,68,35,30.08,29.95,19,4,19,0.00
2014-5-13,71.5,63.0,57.4,54.5,51.1,47.3,80,66,49,30.16,30.03,19,4,19,0.00
2014-5-14,79.4,63.1,49.8,62.6,55.0,46.3,98,77,50,30.20,30.09,18,4,20,0.17
2014-5-15,79.3,67.7,61.2,69.2,63.7,58.5,95,87,69,30.14,29.99,33,9,33,0.00
2014-5-16,69.4,63.9,50.0,65.8,62.3,49.6,100,95,85,29.99,29.73,35,8,35,0.97
2014-5-17,61.6,51.5,43.8,51.0,45.1,41.0,100,80,55,30.12,29.81,28,12,28,0.38
2014-5-18,63.5,50.2,34.8,46.0,40.5,33.7,99,72,40,30.20,30.10,21,5,22,0.00
2014-5-19,65.8,52.3,38.3,51.8,43.6,36.7,98,74,45,30.18,30.04,33,6,33,0.00
2014-5-20,72.8,57.5,41.1,55.0,46.7,39.5,97,70,41,30.11,29.93,18,4,18,0.00
2014-5-21,75.7,59.6,42.7,60.7,50.2,41.3,98,74,33,29.99,29.81,18,2,19,0.00
2014-5-22,62.4,57.8,54.4,61.7,56.6,52.4,100,96,89,29.82,29.76,13,2,14,0.90
2014-5-23,66.7,58.2,52.8,60.9,56.2,52.3,100,93,77,29.93,29.78,21,6,21,0.03
2014-5-24,64.3,56.9,52.3,62.0,56.1,52.2,100,97,84,30.05,29.91,14,1,14,0.09
2014-5-25,75.3,59.8,47.2,66.2,56.1,47.1,100,89,63,30.07,29.95,25,3,25,0.07
2014-5-26,75.0,65.6,53.8,61.1,56.8,52.4,96,74,53,29.98,29.80,30,8,31,0.00
2014-5-27,77.9,67.8,59.0,66.6,62.0,56.1,97,82,64,29.83,29.67,24,6,24,0.01
2014-5-28,65.7,56.9,51.4,64.8,55.0,49.2,99,93,86,30.17,29.74,17,5,17,0.01
2014-5-29,67.9,56.4,43.5,56.2,50.4,42.9,100,82,54,30.20,30.06,12,3,13,0.00
2014-5-30,69.7,58.3,48.5,60.6,54.0,47.6,100,86,58,30.10,29.97,22,4,22,0.02
2014-5-31,68.5,57.4,45.2,56.4,51.1,44.8,100,81,55,30.28,30.10,20,4,20,0.00
2014-6-1,75.4,60.1,45.0,66.0,53.8,44.5,100,82,54,30.34,30.14,12,2,12,0.00
2014-6-2,85.2,66.2,48.4,69.0,59.0,47.5,100,80,50,30.17,29.92,17,2,17,0.00
2014-6-3,80.8,66.6,59.0,74.9,65.1,58.4,100,95,74,29.94,29.75,40,2,41,0.26
2014-6-4,71.5,63.9,55.7,64.8,59.5,54.3,100,87,68,29.84,29.72,20,5,20,0.00
2014-6-5,75.0,62.4,54.5,63.6,56.3,53.4,98,82,54,29.76,29.62,28,7,28,0.00
2014-6-6,71.3,62.9,56.2,62.9,57.2,53.8,95,82,65,29.92,29.75,20,9,20,0.00
2014-6-7,83.6,65.8,50.9,74.1,59.9,50.1,100,83,48,29.98,29.85,19,2,20,0.00
2014-6-8,80.4,67.0,53.9,71.0,60.6,53.1,100,82,47,29.93,29.80,11,2,11,0.00
2014-6-9,69.6,64.7,60.5,66.7,63.0,59.9,100,95,83,29.94,29.84,18,2,18,0.03
2014-6-10,76.2,66.9,59.3,69.1,63.5,59.0,100,90,74,30.00,29.89,13,3,13,0.00
2014-6-11,65.9,60.8,58.1,62.9,60.0,57.8,100,97,88,30.11,30.00,11,1,12,0.43
2014-6-12,62.8,59.5,55.8,62.8,59.5,55.8,100,100,100,30.06,29.92,19,2,19,0.41
2014-6-13,67.9,64.8,62.8,67.9,64.8,62.8,100,100,100,29.91,29.69,19,3,19,1.10
2014-6-14,63.1,60.4,56.0,63.1,57.6,53.3,100,91,76,30.00,29.74,30,12,30,0.01
2014-6-15,77.7,63.8,50.7,66.2,58.1,50.2,100,83,54,30.11,29.98,18,3,18,0.00
2014-6-16,79.7,64.4,50.6,68.7,60.0,50.3,100,87,51,30.14,29.96,13,1,13,0.00
2014-6-17,84.0,70.4,56.7,76.8,66.1,56.4,100,88,62,30.03,29.70,50,2,50,0.15
2014-6-18,77.3,69.1,64.0,71.3,66.6,62.4,100,92,76,29.97,29.71,32,12,32,0.12
2014-6-19,79.2,69.8,60.4,66.4,59.6,51.9,100,72,47,30.01,29.93,15,6,15,0.00
2014-6-20,74.6,63.3,52.9,57.1,52.7,49.2,95,70,46,30.01,29.89,18,7,18,0.00
2014-6-21,74.5,61.0,47.4,62.7,53.4,46.6,100,78,51,29.98,29.86,12,2,12,0.00
2014-6-22,80.7,63.3,48.7,70.1,58.0,48.1,100,84,58,29.99,29.92,13,2,13,0.00
2014-6-23,82.1,66.6,51.8,71.3,61.5,51.2,100,85,58,30.08,29.98,17,2,18,0.00
2014-6-24,73.8,67.3,61.6,72.5,65.5,58.6,100,94,89,30.04,29.88,16,4,16,0.13
2014-6-25,76.2,69.1,65.0,75.1,68.9,64.8,100,99,92,29.89,29.79,30,2,34,0.62
2014-6-26,82.0,70.1,60.4,75.0,67.6,59.8,100,92,73,29.99,29.79,16,2,16,0.49
2014-6-27,69.3,59.2,55.1,63.4,58.1,55.1,100,96,81,30.17,29.99,10,1,10,0.00
2014-6-28,84.9,66.8,53.7,74.5,62.1,53.3,100,86,51,30.26,30.17,12,1,12,0.00
2014-6-29,87.8,69.7,56.1,77.2,65.5,55.8,100,88,60,30.20,30.00,18,2,20,0.00
2014-6-30,86.7,72.7,65.3,78.9,70.0,63.8,100,92,71,30.02,29.84,14,2,15,0.02
2014-7-1,86.8,74.5,65.6,82.5,72.7,65.6,100,94,79,29.86,29.65,56,3,56,0.23
2014-7-2,84.5,72.7,66.0,80.9,72.2,66.0,100,99,86,29.92,29.72,19,2,21,0.54
2014-7-3,84.0,70.5,65.4,78.6,69.6,65.4,100,97,77,29.92,29.77,33,2,33,1.22
2014-7-4,70.3,66.4,59.0,67.4,63.3,55.8,100,90,72,29.98,29.89,24,8,24,0.00
2014-7-5,76.5,67.4,57.9,65.3,58.5,53.2,93,74,57,30.08,29.97,33,14,34,0.00
2014-7-6,82.0,67.5,55.8,70.7,61.5,53.4,95,82,59,30.01,29.81,29,8,29,0.00
2014-7-7,79.4,66.7,55.8,77.4,65.9,54.9,100,97,89,29.82,29.62,29,3,31,0.42
2014-7-8,81.4,72.2,65.6,79.0,71.4,65.6,100,98,88,29.73,29.50,61,3,61,0.42
2014-7-9,76.8,67.5,62.0,73.3,66.7,60.8,100,97,82,29.93,29.60,30,5,30,0.04
2014-7-10,81.1,65.2,53.8,68.7,59.9,53.6,100,85,57,30.14,29.93,20,4,21,0.00
2014-7-11,81.5,64.6,53.1,67.6,59.5,52.5,100,85,53,30.23,30.13,13,2,13,0.00
2014-7-12,84.5,67.9,53.1,76.8,64.9,52.8,100,91,70,30.20,30.00,18,3,18,0.00
2014-7-13,77.1,70.6,63.9,76.3,70.0,63.3,100,98,90,30.01,29.76,20,4,21,0.45
2014-7-14,83.6,71.9,64.7,77.9,70.7,64.7,100,96,75,29.86,29.76,17,2,17,0.00
2014-7-15,76.3,71.1,68.0,76.3,70.8,67.7,100,99,94,29.78,29.68,23,2,23,0.03
2014-7-16,75.6,68.1,60.0,69.0,63.5,56.8,100,86,70,29.87,29.70,22,8,23,0.00
2014-7-17,74.3,62.6,51.9,66.6,59.0,51.5,100,89,70,30.08,29.87,23,7,24,0.00
2014-7-18,80.5,63.7,49.6,69.8,59.4,49.2,100,87,61,30.21,30.08,15,2,15,0.00
2014-7-19,76.3,64.3,55.0,68.3,61.6,54.6,100,91,67,30.24,30.15,17,1,18,0.00
2014-7-20,78.4,66.0,58.1,68.4,61.3,57.8,100,86,57,30.17,30.07,18,1,18,0.00
2014-7-21,81.2,68.7,57.9,75.4,66.0,57.4,100,92,72,30.16,30.06,12,1,12,0.00
2014-7-22,85.3,72.7,61.2,79.1,70.4,60.9,100,93,75,30.11,29.91,18,2,18,0.00
2014-7-23,83.6,73.1,67.7,79.7,72.0,66.6,100,97,82,29.92,29.69,32,6,32,0.26
2014-7-24,77.0,68.0,62.4,67.6,61.7,55.0,96,81,58,29.93,29.80,16,7,16,0.00
2014-7-25,77.3,63.5,50.5,69.8,59.4,50.0,100,87,66,30.00,29.91,21,5,21,0.00
2014-7-26,79.0,65.1,53.9,70.3,61.3,53.6,100,89,60,29.94,29.82,19,4,20,0.00
2014-7-27,78.5,69.0,61.3,74.3,66.7,61.0,100,93,76,29.83,29.59,29,5,29,0.31
2014-7-28,70.7,65.7,61.6,68.9,64.6,59.8,100,97,87,29.65,29.44,27,7,30,0.63
2014-7-29,69.9,63.0,55.7,64.5,59.3,54.5,97,88,68,29.93,29.65,20,7,20,0.00
2014-7-30,75.3,63.0,52.6,66.6,59.3,52.0,100,89,64,30.01,29.93,14,3,14,0.00
2014-7-31,72.9,63.3,54.6,69.9,61.5,54.0,100,94,80,30.11,29.97,35,3,35,0.10
2014-8-1,81.8,67.0,54.9,74.1,64.4,54.7,100,92,69,30.16,30.09,16,2,16,0.00
2014-8-2,79.8,69.3,62.1,73.4,66.4,61.6,100,91,73,30.15,30.02,14,1,15,0.00
2014-8-3,77.7,67.6,58.5,73.2,65.5,58.2,100,93,78,30.09,29.97,0,0,0,0.00
2014-8-4,79.8,69.4,63.2,73.8,67.7,62.4,100,95,75,30.02,29.96,20,2,20,0.01
2014-8-5,81.4,68.8,58.4,74.8,66.2,58.3,100,92,75,30.01,29.89,19,5,19,0.00
2014-8-6,77.3,69.7,59.9,65.3,61.6,55.8,99,77,55,29.90,29.81,17,6,17,0.00
2014-8-7,75.5,63.7,56.2,65.3,58.4,54.8,100,84,57,29.99,29.87,27,4,28,0.00
2014-8-8,77.8,64.5,51.0,67.2,58.8,50.5,100,84,57,30.07,29.99,16,4,16,0.00
2014-8-9,81.8,65.6,52.1,70.9,61.2,51.5,100,87,55,30.12,30.04,17,2,18,0.00
2014-8-10,81.3,67.5,56.4,70.5,62.7,55.8,100,86,61,30.14,30.06,13,2,13,0.00
2014-8-11,81.9,67.3,55.0,74.1,63.4,54.4,100,88,64,30.11,30.00,18,2,19,0.00
2014-8-12,71.3,65.5,60.6,68.9,64.5,59.6,100,97,86,30.04,29.85,24,5,27,0.08
2014-8-13,66.8,65.1,61.7,66.8,65.0,60.1,100,100,93,29.86,29.65,30,4,30,1.08
2014-8-14,68.5,61.4,56.0,61.1,56.6,53.3,95,85,65,29.85,29.71,41,15,42,0.01
2014-8-15,63.1,57.0,52.5,60.1,55.6,52.0,100,95,83,29.90,29.82,30,7,32,0.02
2014-8-16,69.1,59.3,51.2,64.6,57.7,51.0,100,95,74,29.93,29.83,13,2,14,0.00
2014-8-17,71.3,63.3,57.8,64.4,60.0,57.2,100,90,71,29.88,29.78,20,7,20,0.01
2014-8-18,72.7,62.0,53.1,61.0,56.3,50.0,100,84,47,29.88,29.80,13,2,13,0.00
2014-8-19,73.7,60.5,47.9,67.5,57.0,47.4,100,89,66,29.92,29.86,9,2,9,0.00
2014-8-20,78.9,66.0,56.6,73.3,64.1,55.9,100,94,79,29.97,29.90,25,2,25,0.49
2014-8-21,70.5,66.5,63.8,70.5,66.5,63.8,100,100,100,30.00,29.94,25,2,26,0.53
2014-8-22,65.3,63.2,60.9,65.3,63.2,60.9,100,100,100,30.06,29.95,18,4,19,0.00
2014-8-23,70.3,63.4,58.2,67.8,62.7,58.2,100,98,84,30.12,30.05,8,1,8,0.02
2014-8-24,77.7,65.1,56.6,71.7,62.0,56.6,100,91,59,30.17,30.08,14,3,14,0.00
2014-8-25,80.9,66.4,55.5,72.5,63.6,55.4,100,92,64,30.20,30.09,12,2,12,0.00
2014-8-26,80.3,67.4,56.3,73.2,64.9,56.3,100,92,72,30.14,29.98,18,3,19,0.00
2014-8-27,78.5,69.8,61.1,75.4,67.5,60.8,100,93,80,29.99,29.86,23,6,23,0.00
2014-8-28,71.6,63.9,55.8,64.5,59.0,54.6,100,85,65,30.05,29.85,32,7,32,0.00
2014-8-29,72.9,61.5,51.2,65.9,57.8,50.1,100,88,67,30.18,30.04,14,4,14,0.00
2014-8-30,76.9,63.8,51.5,69.8,61.0,51.2,100,91,72,30.21,30.02,17,3,17,0.00
2014-8-31,74.7,69.2,64.3,74.7,68.9,63.8,100,99,95,30.05,29.89,11,2,11,0.57
2014-9-1,81.8,71.4,63.5,77.1,70.1,63.5,100,96,76,29.97,29.85,11,3,12,0.00
2014-9-2,83.3,73.7,64.5,78.6,71.8,64.5,100,94,80,29.87,29.65,25,4,26,0.37
2014-9-3,77.0,67.5,58.4,70.4,64.1,58.1,100,90,67,30.08,29.75,22,8,23,0.00
2014-9-4,79.2,65.8,54.6,74.9,64.0,54.6,100,94,76,30.15,30.04,12,3,12,0.00
2014-9-5,83.3,70.8,59.8,78.1,69.0,59.8,100,94,78,30.11,29.89,17,4,22,0.00
2014-9-6,77.5,69.0,62.6,75.1,67.6,60.9,100,95,84,29.93,29.78,34,8,38,0.01
2014-9-7,74.4,64.4,55.6,63.8,58.9,53.3,100,83,55,30.19,29.91,16,5,17,0.00
2014-9-8,73.0,60.7,50.5,64.8,56.8,50.2,100,88,63,30.33,30.19,16,3,16,0.00
2014-9-9,71.3,59.3,47.7,62.7,55.7,47.1,100,89,68,30.31,30.13,20,4,21,0.00
2014-9-10,73.0,62.3,52.5,66.6,59.2,52.0,100,90,72,30.13,29.90,17,4,18,0.00
2014-9-11,69.3,62.9,58.8,69.2,61.5,55.7,100,95,86,29.97,29.69,36,11,36,0.18
2014-9-12,65.4,57.4,51.5,57.8,52.3,47.7,92,83,67,30.23,29.97,20,8,21,0.00
2014-9-13,54.8,50.4,43.7,54.8,49.2,42.6,100,95,87,30.24,30.06,23,4,25,0.54
2014-9-14,61.2,51.9,44.6,54.3,47.5,42.3,97,85,66,30.28,30.17,30,8,31,0.00
2014-9-15,63.6,50.9,39.1,54.7,47.1,38.6,100,88,57,30.24,30.04,17,3,17,0.00
2014-9-16,63.2,55.6,50.0,60.2,53.5,48.9,100,93,78,30.04,29.93,22,7,23,0.25
2014-9-17,65.4,52.4,42.4,56.5,49.0,41.8,100,89,66,30.03,29.92,19,6,21,0.00
2014-9-18,64.9,52.1,41.3,60.1,50.3,40.8,100,94,79,30.17,29.93,12,4,15,0.00
2014-9-19,58.4,47.6,39.1,48.3,41.9,36.1,98,81,56,30.35,30.17,14,4,16,0.00
2014-9-20,68.0,55.1,41.9,65.3,54.1,41.2,100,97,87,30.28,29.97,18,4,19,0.00
2014-9-21,76.6,63.8,54.4,69.7,61.6,54.4,100,93,74,29.98,29.52,22,6,23,0.07
2014-9-22,58.3,54.2,44.6,58.2,50.6,43.2,100,88,74,30.12,29.56,40,15,46,0.00
2014-9-23,62.0,51.3,40.9,58.7,49.7,40.3,100,94,81,30.41,30.12,16,4,16,0.00
2014-9-24,69.3,55.7,46.9,62.1,53.4,46.6,100,93,68,30.57,30.41,14,3,17,0.00
2014-9-25,65.0,54.3,46.5,60.3,52.5,46.2,100,94,75,30.50,30.25,10,3,11,0.00
2014-9-26,73.8,58.7,48.9,67.0,56.5,48.6,100,93,65,30.26,30.16,10,3,12,0.00
2014-9-27,74.4,60.0,48.9,69.9,58.1,48.4,100,94,69,30.24,30.15,8,3,8,0.00
2014-9-28,75.3,61.0,54.2,69.7,59.1,54.2,100,94,70,30.17,29.98,15,3,19,0.00
2014-9-29,68.4,59.0,51.7,64.7,57.4,51.6,100,95,80,29.98,29.89,10,2,11,0.00
2014-9-30,67.8,59.9,51.9,64.1,58.6,51.6,100,96,84,29.99,29.90,11,2,14,0.00
2014-10-1,63.9,60.0,57.6,59.8,58.3,57.4,100,94,84,30.10,29.99,13,3,13,0.00
2014-10-2,67.3,59.3,52.2,62.9,57.9,51.9,100,95,83,30.15,30.06,9,2,9,0.00
2014-10-3,69.2,57.5,49.5,58.0,52.7,49.2,100,86,56,30.09,29.76,24,4,25,0.00
2014-10-4,57.1,22.4,49.6,54.0,21.8,45.6,100,40,84,29.76,29.48,24,6,27,0.29
2014-10-5,58.2,34.5,38.2,47.0,30.3,37.4,97,58,60,29.92,29.62,25,9,28,0.00
2014-10-6,62.8,48.3,33.5,52.9,44.2,32.7,100,87,63,30.01,29.91,24,4,24,0.00
2014-10-7,66.5,58.6,54.4,59.3,54.7,50.7,99,88,67,29.97,29.80,26,5,26,0.02
2014-10-8,65.0,57.1,51.3,58.4,52.4,41.5,100,85,62,29.86,29.59,40,15,40,0.08
2014-10-9,59.7,51.2,42.7,46.8,43.2,39.8,93,75,56,29.99,29.83,41,14,42,0.00
2014-10-10,55.0,47.2,37.7,47.4,42.9,36.8,100,86,69,30.11,29.98,24,8,24,0.00
2014-10-11,57.2,46.3,37.3,48.9,42.1,36.4,99,86,60,30.17,30.04,18,4,18,0.00
2014-10-12,60.2,44.1,32.8,46.1,39.3,32.0,100,85,55,30.28,30.17,10,4,12,0.00
2014-10-13,55.6,46.8,32.5,53.6,45.1,31.7,100,94,85,30.28,30.18,10,2,11,0.00
2014-10-14,74.1,62.8,54.6,68.7,60.4,53.5,100,92,79,30.18,30.01,19,3,19,0.00
2014-10-15,75.7,68.6,63.7,70.1,66.0,62.2,100,92,78,30.02,29.80,25,8,26,0.05
2014-10-16,69.0,65.3,56.1,68.6,64.6,55.7,100,98,88,29.80,29.56,26,7,27,0.42
2014-10-17,65.8,57.5,49.6,58.6,54.8,49.6,100,91,69,29.63,29.54,28,5,28,0.00
2014-10-18,57.4,54.3,49.4,56.7,52.2,44.7,100,93,81,29.67,29.49,32,9,32,0.27
2014-10-19,49.3,43.8,35.5,44.9,37.1,29.7,89,77,65,30.01,29.68,34,15,34,0.00
2014-10-20,56.5,42.1,31.3,44.8,37.4,29.9,98,84,59,30.02,29.90,19,3,20,0.00
2014-10-21,53.0,48.0,44.1,52.3,47.1,41.8,99,97,91,30.01,29.88,17,4,17,0.05
2014-10-22,50.5,49.8,49.1,48.6,47.7,46.5,96,92,86,30.01,29.95,28,15,29,0.07
2014-10-23,50.8,48.1,47.0,50.2,47.3,46.2,98,97,94,29.84,29.80,14,9,15,0.65
2014-10-24,52.7,48.0,40.1,49.2,46.0,39.6,99,93,86,29.84,29.77,15,6,15,0.06
2014-10-25,61.7,48.0,35.7,53.8,45.3,35.5,100,91,69,29.83,29.49,24,6,24,0.00
2014-10-26,50.8,48.8,46.7,48.3,44.2,41.9,98,84,76,29.74,29.46,34,15,35,0.01
2014-10-27,59.9,49.7,38.7,46.8,43.0,37.7,96,78,56,29.98,29.74,28,11,29,0.00
2014-10-28,60.8,48.8,37.9,53.7,46.2,37.0,100,91,72,30.00,29.80,10,2,10,0.01
2014-10-29,57.4,52.6,45.6,54.8,48.2,39.9,100,85,66,29.89,29.79,28,9,28,0.00
2014-10-30,54.9,47.6,41.5,44.5,41.2,36.1,89,79,63,30.00,29.87,26,13,26,0.00
2014-10-31,51.2,40.6,29.9,41.4,35.9,28.9,99,84,55,30.04,29.93,19,5,20,0.00
2014-11-1,49.1,42.4,37.3,38.0,35.8,32.9,95,78,60,29.97,29.88,21,10,22,0.03
2014-11-2,43.4,39.1,36.8,36.5,30.0,22.3,95,71,49,30.00,29.90,33,18,34,0.00
2014-11-3,55.2,43.9,35.0,42.1,33.3,24.9,81,67,46,30.06,29.97,29,12,29,0.12
2014-11-4,63.6,51.6,43.2,42.2,38.4,34.2,89,62,39,30.08,29.89,17,4,18,3.65
2014-11-5,55.9,48.5,35.0,49.7,41.7,33.0,93,78,53,30.10,29.85,37,10,37,0.00
2014-11-6,46.5,40.8,35.0,43.1,39.2,33.2,98,94,83,30.09,29.57,17,5,18,0.01
2014-11-7,44.7,40.1,34.8,40.0,35.7,26.7,97,85,73,29.87,29.58,33,13,33,0.01
2014-11-8,43.0,37.4,33.7,33.1,29.7,25.6,88,74,61,29.95,29.80,26,8,28,0.00
2014-11-9,46.9,39.5,28.2,38.9,33.5,26.8,95,80,61,29.98,29.79,26,7,29,0.00
2014-11-10,53.3,37.7,27.5,44.8,33.9,26.4,99,87,58,30.14,29.97,9,3,10,0.00
2014-11-11,63.0,44.3,30.8,51.2,41.6,30.3,100,91,64,30.09,29.87,20,3,20,0.00
2014-11-12,50.2,45.4,37.2,50.2,41.1,28.4,100,86,68,30.08,29.81,34,10,34,0.00
2014-11-13,41.5,36.2,30.9,32.0,30.3,27.1,97,79,63,30.08,29.95,19,8,21,0.00
2014-11-14,37.2,32.8,29.1,31.7,27.3,22.1,98,80,70,30.13,29.93,28,14,30,0.01
2014-11-15,38.2,29.6,22.2,26.0,21.8,18.0,93,73,53,30.31,30.13,25,11,28,0.00
2014-11-16,37.0,31.5,22.1,28.5,25.4,20.4,94,78,64,30.31,30.02,14,3,14,0.00
2014-11-17,37.7,34.0,31.9,36.9,32.7,27.6,100,95,78,30.02,29.46,34,4,34,0.89
2014-11-18,36.8,26.2,20.0,33.9,18.9,10.0,89,74,59,29.90,29.51,50,23,50,0.01
2014-11-19,29.6,23.3,19.0,21.5,15.2,10.9,93,71,52,30.15,29.90,44,12,44,0.00
2014-11-20,33.8,26.2,19.7,26.5,21.1,17.2,93,81,67,29.93,29.80,35,12,35,0.02
2014-11-21,29.4,24.8,21.7,21.1,18.4,14.9,88,77,60,30.42,29.92,35,18,35,0.00
2014-11-22,34.7,26.8,16.8,32.9,21.8,13.9,97,82,50,30.40,30.05,17,3,19,0.01
2014-11-23,48.4,38.4,33.4,44.9,37.5,32.6,100,97,83,30.12,29.95,9,3,9,0.00
2014-11-24,64.3,53.4,35.2,62.2,50.5,34.4,100,91,76,29.95,29.39,23,5,25,0.24
2014-11-25,59.0,43.2,31.4,51.8,36.3,29.0,93,77,63,30.14,29.58,33,10,33,0.00
2014-11-26,38.9,33.7,30.5,33.2,30.6,28.2,98,89,75,30.21,29.88,27,7,27,0.00
2014-11-27,32.5,29.2,26.7,30.8,28.3,26.0,99,96,93,30.03,29.88,11,2,11,0.00
2014-11-28,29.0,25.8,20.8,26.0,22.5,18.0,97,87,74,30.22,30.01,31,12,31,0.00
2014-11-29,29.8,23.6,15.9,24.2,19.8,14.2,95,85,70,30.31,30.10,19,5,20,0.00
2014-11-30,39.3,34.1,27.7,35.7,31.7,24.0,97,91,85,30.11,29.95,12,1,13,0.00
2014-12-1,43.2,37.0,29.6,42.5,33.5,20.2,100,87,68,30.51,29.94,32,12,32,0.00
2014-12-2,32.5,27.7,22.4,30.0,22.1,17.3,98,80,63,30.68,30.30,23,5,23,0.00
2014-12-3,37.6,34.2,30.6,37.5,32.8,28.8,100,95,82,30.30,29.86,49,9,49,0.02
2014-12-4,33.7,31.1,25.9,29.1,26.1,22.9,89,82,76,30.53,30.11,31,11,32,0.00
2014-12-5,31.8,26.0,17.7,29.9,22.5,15.5,98,87,69,30.61,30.36,13,3,13,0.01
2014-12-6,34.4,32.9,30.3,34.2,32.5,29.5,100,98,90,30.36,30.16,15,2,15,0.01
2014-12-7,33.7,25.3,14.4,31.0,19.9,11.3,90,80,59,30.71,30.35,22,7,23,0.00
2014-12-8,26.3,18.9,9.9,23.8,13.8,7.3,91,81,54,30.71,30.44,15,3,15,0.00
2014-12-9,35.1,29.8,26.3,34.6,28.4,23.5,99,94,89,30.44,29.74,12,5,12,0.00
2014-12-10,35.2,32.5,28.5,34.7,31.8,28.0,99,97,93,29.74,29.51,20,8,21,0.00
2014-12-11,31.2,28.1,25.0,29.5,26.9,23.8,98,95,92,29.81,29.51,23,9,23,0.00
2014-12-12,29.2,27.5,24.0,27.0,25.7,23.0,97,93,88,29.99,29.81,21,12,22,0.00
2014-12-13,33.4,28.9,22.2,31.8,26.7,20.7,96,91,82,29.99,29.86,21,7,23,0.00
2014-12-14,38.6,34.7,32.8,34.4,32.6,30.6,96,92,84,29.98,29.85,17,7,17,0.13
2014-12-15,37.7,33.3,30.9,31.9,30.5,29.1,95,89,78,30.11,29.97,12,4,12,0.00
2014-12-16,36.2,33.0,30.3,36.2,32.4,29.0,100,97,94,30.09,29.86,12,2,13,0.00
2014-12-17,38.8,35.1,33.5,38.3,34.2,32.0,100,97,88,29.86,29.75,30,7,30,0.00
2014-12-18,34.9,32.8,30.3,32.1,30.0,26.6,95,89,84,29.94,29.79,32,18,32,0.00
2014-12-19,30.7,28.0,21.6,27.0,23.7,18.3,88,84,79,30.21,29.93,23,12,23,0.00
2014-12-20,28.8,22.9,16.1,23.5,19.9,14.4,95,88,77,30.32,30.21,8,2,8,0.00
2014-12-21,30.8,28.2,25.4,27.7,25.6,23.1,94,90,85,30.36,30.28,7,1,8,0.00
2014-12-22,33.4,31.1,28.6,32.2,29.7,26.7,97,94,91,30.35,30.21,6,1,6,0.01
2014-12-23,35.5,33.9,32.7,35.5,33.7,31.9,100,99,97,30.22,30.09,5,0,5,0.01
2014-12-24,38.8,36.2,33.9,38.8,36.2,33.9,100,100,100,30.09,29.43,7,1,7,0.10
2014-12-25,44.1,39.6,36.4,44.1,36.2,31.7,100,88,75,30.04,29.38,40,16,40,0.00
2014-12-26,40.9,35.7,26.7,35.2,31.7,26.0,97,86,78,30.20,30.04,32,11,32,0.00
2014-12-27,44.4,34.5,26.1,39.1,32.9,25.4,99,94,79,30.22,29.92,14,2,14,0.00
2014-12-28,40.9,37.2,33.3,40.8,34.6,27.4,100,90,76,30.03,29.79,31,11,31,0.16
2014-12-29,34.4,30.7,22.6,30.0,23.6,13.1,86,75,65,30.26,30.02,30,14,30,0.00
2014-12-30,26.3,21.1,14.9,14.3,10.9,7.5,77,64,52,30.39,30.25,31,10,34,0.00
2014-12-31,24.9,19.8,15.7,17.4,12.8,8.1,86,74,63,30.28,30.02,28,11,33,0.00
2015-1-1,30.3,23.9,19.2,17.9,14.1,9.2,81,66,51,30.01,29.83,36,10,36,0.00
2015-1-2,30.9,28.4,24.2,25.8,21.4,15.1,86,75,63,30.45,29.90,39,17,39,0.00